Terminal Aerodrome Forecast
Issued by NWS Newport/Morehead City, NC

Home | Current Version | Previous Version | Graphics & Text | Print | Product List | Glossary On
Versions: 1 2 3 4 5 6 7 8 9 10 11 12 13 14 15
000
FTUS42 KMHX 261100 CCA
TAFEWN
TAF COR
KEWN 261156Z 2612/2712 14010G15KT 5SM -RA SCT005 OVC015
     FM261330 35012G18KT 4SM -RA OVC007
     FM261800 30012G17KT 5SM -RA BR SCT007 OVC015
     FM262100 30010G16KT P6SM VCSH BKN015
     FM270000 30005KT P6SM SCT025 BKN050=

USA.gov is the U.S. government's official web portal to all federal, state and local government web resources and services.